createdAt,value
2022-09-05T00:00:01.824Z,6.70
2022-09-05T00:02:49.481Z,8.15
2022-09-05T00:05:41.296Z,7.25
2022-09-05T00:08:29.466Z,7.90
2022-09-05T00:11:40.735Z,6.50
2022-09-05T00:14:16.198Z,8.38
2022-09-05T00:17:16.980Z,7.05
2022-09-05T00:22:51.337Z,8.32
2022-09-05T00:24:20.511Z,6.97
2022-09-05T00:26:02.223Z,5.63
2022-09-05T00:28:41.975Z,6.00
2022-09-05T00:31:55.438Z,7.93
2022-09-05T00:34:22.486Z,6.40
2022-09-05T00:36:54.897Z,7.85
2022-09-05T00:39:28.177Z,6.57
2022-09-05T00:41:59.708Z,5.15
2022-09-05T00:44:38.150Z,6.27
2022-09-05T00:47:15.009Z,6.10
2022-09-05T00:49:49.318Z,7.15
2022-09-05T00:52:25.541Z,7.18
2022-09-05T00:55:13.856Z,6.45
2022-09-05T00:57:56.403Z,7.38
2022-09-05T01:03:33.205Z,5.60
2022-09-05T01:06:14.662Z,6.57
2022-09-05T01:09:07.346Z,7.10
2022-09-05T01:11:45.733Z,6.97
2022-09-05T01:14:38.005Z,9.60
2022-09-05T01:17:19.505Z,6.63
2022-09-05T01:20:19.348Z,7.28
2022-09-05T01:23:33.214Z,10.15
2022-09-05T01:26:19.864Z,6.30
2022-09-05T01:29:15.493Z,8.82
2022-09-05T01:31:51.874Z,6.65
2022-09-05T01:34:31.931Z,6.10
2022-09-05T01:37:06.255Z,7.35
2022-09-05T01:40:11.008Z,7.72
2022-09-05T01:42:40.177Z,6.80
2022-09-05T01:45:19.638Z,8.00
2022-09-05T01:47:53.148Z,8.15
2022-09-05T01:50:35.662Z,8.30
2022-09-05T01:53:27.633Z,7.43
2022-09-05T01:56:11.645Z,7.82
2022-09-05T01:58:52.705Z,8.32
2022-09-05T02:01:32.655Z,7.82
2022-09-05T02:04:28.083Z,7.43
2022-09-05T02:07:29.784Z,7.43
2022-09-05T02:10:13.089Z,7.93
2022-09-05T02:13:02.501Z,7.75
2022-09-05T02:15:41.068Z,7.45
2022-09-05T02:18:16.881Z,8.27
2022-09-05T02:20:50.883Z,10.10
2022-09-05T02:23:41.290Z,8.32
2022-09-05T02:26:18.574Z,7.68
2022-09-05T02:28:53.577Z,7.13
2022-09-05T02:31:28.394Z,8.10
2022-09-05T02:34:03.156Z,7.10
2022-09-05T02:36:42.385Z,7.47
2022-09-05T02:45:01.286Z,8.73
2022-09-05T02:45:13.847Z,8.55
2022-09-05T02:45:26.539Z,9.13
2022-09-05T02:48:06.920Z,7.78
2022-09-05T02:57:26.694Z,7.95
2022-09-05T02:57:27.483Z,8.88
2022-09-05T02:57:45.722Z,8.10
2022-09-05T03:00:01.573Z,9.35
2022-09-05T03:02:37.669Z,7.85
2022-09-05T03:05:12.953Z,9.93
2022-09-05T03:08:00.034Z,8.63
2022-09-05T03:11:02.154Z,7.78
2022-09-05T03:13:56.314Z,7.10
2022-09-05T03:17:02.863Z,12.25
2022-09-05T03:20:12.622Z,7.85
2022-09-05T03:23:39.681Z,8.18
2022-09-05T03:27:01.685Z,8.27
2022-09-05T03:30:12.150Z,9.95
2022-09-05T03:33:15.694Z,8.25
2022-09-05T03:36:14.086Z,9.98
2022-09-05T03:39:17.453Z,10.38
2022-09-05T03:42:16.582Z,9.48
2022-09-05T03:45:02.727Z,10.85
2022-09-05T03:48:02.187Z,14.05
2022-09-05T03:57:20.828Z,10.80
2022-09-05T03:57:27.637Z,11.68
2022-09-05T03:57:38.460Z,11.50
2022-09-05T04:00:10.519Z,9.88
2022-09-05T04:08:08.390Z,9.70
2022-09-05T04:08:24.163Z,13.40
2022-09-05T04:08:43.099Z,11.67
2022-09-05T04:11:17.731Z,11.80
2022-09-05T04:13:52.651Z,11.00
2022-09-05T04:16:24.334Z,10.43
2022-09-05T04:18:55.767Z,9.65
2022-09-05T04:21:27.626Z,10.65
2022-09-05T04:24:03.874Z,10.45
2022-09-05T04:26:49.020Z,10.80
2022-09-05T04:29:23.847Z,10.00
2022-09-05T04:32:18.137Z,10.77
2022-09-05T04:35:15.609Z,12.15
2022-09-05T04:37:55.163Z,11.80
2022-09-05T04:40:50.097Z,10.70
2022-09-05T04:43:28.865Z,11.57
2022-09-05T04:46:06.095Z,12.07
2022-09-05T04:48:38.201Z,9.68
2022-09-05T04:51:12.890Z,15.68
2022-09-05T04:54:11.666Z,13.40
2022-09-05T04:56:43.930Z,14.95
2022-09-05T05:01:18.710Z,12.27
2022-09-05T05:05:59.891Z,12.52
2022-09-05T05:06:15.945Z,11.93
2022-09-05T05:08:02.982Z,13.30
2022-09-05T05:11:13.111Z,13.82
2022-09-05T05:17:59.776Z,11.10
2022-09-05T05:18:12.195Z,14.30
2022-09-05T05:19:21.663Z,14.77
2022-09-05T05:21:55.132Z,13.05
2022-09-05T05:24:26.327Z,12.27
2022-09-05T05:27:02.767Z,14.05
2022-09-05T05:29:39.262Z,12.43
2022-09-05T05:32:09.280Z,15.05
2022-09-05T05:34:46.323Z,13.15
2022-09-05T05:37:19.500Z,14.32
2022-09-05T05:39:52.266Z,13.68
2022-09-05T05:42:23.937Z,13.63
2022-09-05T05:44:54.965Z,14.82
2022-09-05T05:47:32.008Z,12.43
2022-09-05T05:50:04.011Z,13.35
2022-09-05T05:53:34.916Z,13.43
2022-09-05T05:56:19.655Z,11.63
2022-09-05T05:59:04.214Z,14.23
2022-09-05T06:02:12.076Z,15.45
2022-09-05T06:05:09.059Z,13.65
2022-09-05T06:08:10.272Z,14.43
2022-09-05T06:14:50.946Z,16.73
2022-09-05T06:15:10.453Z,16.08
2022-09-05T06:18:19.227Z,17.33
2022-09-05T06:22:11.423Z,14.35
2022-09-05T06:25:19.792Z,16.10
2022-09-05T06:28:17.844Z,18.13
2022-09-05T06:30:57.253Z,14.60
2022-09-05T06:33:53.452Z,11.98
2022-09-05T06:36:33.617Z,11.75
2022-09-05T06:39:12.289Z,15.98
2022-09-05T06:41:51.682Z,12.98
2022-09-05T06:44:44.122Z,12.40
2022-09-05T06:47:24.045Z,15.95
2022-09-05T06:50:26.696Z,13.85
2022-09-05T06:53:31.724Z,14.52
2022-09-05T06:56:26.966Z,10.55
2022-09-05T06:59:21.802Z,10.32
2022-09-05T07:02:01.123Z,17.25
2022-09-05T07:05:36.825Z,15.68
2022-09-05T07:07:32.734Z,10.70
2022-09-05T07:10:34.735Z,13.38
2022-09-05T07:13:05.858Z,10.48
2022-09-05T07:15:43.321Z,10.85
2022-09-05T07:18:22.185Z,13.60
2022-09-05T07:21:17.136Z,11.95
2022-09-05T07:24:08.959Z,9.35
2022-09-05T07:26:53.710Z,7.28
2022-09-05T07:29:29.842Z,10.90
2022-09-05T07:32:00.632Z,8.73
2022-09-05T07:34:31.062Z,8.35
2022-09-05T07:37:15.757Z,6.43
2022-09-05T07:39:49.811Z,7.40
2022-09-05T07:42:25.840Z,8.13
2022-09-05T07:44:57.874Z,6.53
2022-09-05T07:47:30.397Z,6.63
2022-09-05T07:51:51.299Z,4.97
2022-09-05T07:57:02.244Z,5.30
2022-09-05T07:57:08.354Z,7.40
2022-09-05T07:58:39.768Z,4.60
2022-09-05T08:01:09.880Z,7.63
2022-09-05T08:03:37.906Z,5.38
2022-09-05T08:06:10.358Z,5.93
2022-09-05T08:09:05.643Z,7.32
2022-09-05T08:11:38.502Z,6.30
2022-09-05T08:14:43.541Z,6.25
2022-09-05T08:17:00.592Z,5.63
2022-09-05T08:19:44.735Z,7.47
2022-09-05T08:22:21.226Z,5.85
2022-09-05T08:24:58.324Z,7.00
2022-09-05T08:27:32.443Z,10.32
2022-09-05T08:30:26.946Z,6.50
2022-09-05T08:33:10.733Z,4.55
2022-09-05T08:35:43.825Z,7.82
2022-09-05T08:38:14.698Z,7.22
2022-09-05T08:40:51.186Z,5.32
2022-09-05T08:46:10.231Z,6.60
2022-09-05T08:46:46.773Z,8.02
2022-09-05T08:49:37.820Z,7.93
2022-09-05T08:52:12.942Z,5.47
2022-09-05T08:55:06.292Z,7.15
2022-09-05T08:57:55.918Z,5.30
2022-09-05T09:00:27.508Z,7.72
2022-09-05T09:03:13.828Z,8.00
2022-09-05T09:06:15.941Z,4.97
2022-09-05T09:08:55.406Z,6.28
2022-09-05T09:11:31.911Z,5.38
2022-09-05T09:14:41.376Z,4.82
2022-09-05T09:17:26.311Z,5.10
2022-09-05T09:20:14.479Z,5.97
2022-09-05T09:22:49.058Z,6.25
2022-09-05T09:25:26.439Z,6.68
2022-09-05T09:28:50.606Z,10.30
2022-09-05T09:31:16.844Z,6.47
2022-09-05T09:33:52.621Z,5.32
2022-09-05T09:36:45.369Z,6.32
2022-09-05T09:39:38.999Z,6.22
2022-09-05T09:42:33.292Z,4.68
2022-09-05T09:45:28.860Z,4.55
2022-09-05T09:48:29.614Z,8.10
2022-09-05T09:51:13.628Z,8.60
2022-09-05T09:53:57.879Z,8.32
2022-09-05T09:56:58.013Z,5.88
2022-09-05T09:59:56.462Z,3.95
2022-09-05T10:05:22.437Z,5.28
2022-09-05T10:10:44.276Z,5.50
2022-09-05T10:11:09.664Z,3.25
2022-09-05T10:12:53.350Z,5.68
2022-09-05T10:15:45.393Z,4.97
2022-09-05T10:18:34.398Z,7.63
2022-09-05T10:21:36.043Z,4.20
2022-09-05T10:24:42.986Z,3.70
2022-09-05T10:27:32.616Z,9.73
2022-09-05T10:30:11.077Z,5.70
2022-09-05T10:35:08.050Z,5.00
2022-09-05T10:35:37.753Z,5.60
2022-09-05T10:38:11.618Z,4.93
2022-09-05T10:41:20.005Z,5.97
2022-09-05T10:43:40.137Z,5.32
2022-09-05T10:46:47.002Z,7.22
2022-09-05T10:49:12.461Z,5.32
2022-09-05T10:51:51.998Z,6.80
2022-09-05T10:54:35.644Z,5.53
2022-09-05T10:57:16.258Z,6.15
2022-09-05T11:02:21.266Z,5.95
2022-09-05T11:02:57.805Z,8.02
2022-09-05T11:05:28.898Z,4.00
2022-09-05T11:08:06.575Z,3.70
2022-09-05T11:10:38.428Z,5.28
2022-09-05T11:13:23.833Z,4.18
2022-09-05T11:16:04.954Z,5.30
2022-09-05T11:18:57.311Z,5.70
2022-09-05T11:21:40.204Z,5.22
2022-09-05T11:24:18.622Z,6.65
2022-09-05T11:27:23.701Z,4.47
2022-09-05T11:29:45.749Z,6.38
2022-09-05T11:37:44.384Z,4.70
2022-09-05T11:40:07.229Z,5.65
2022-09-05T11:42:11.900Z,4.40
2022-09-05T11:44:56.807Z,5.43
2022-09-05T11:47:54.670Z,3.95
2022-09-05T11:50:54.405Z,5.18
2022-09-05T11:54:13.483Z,3.22
2022-09-05T11:57:32.099Z,4.78
2022-09-05T12:00:30.868Z,5.82
2022-09-05T12:03:59.680Z,4.03
2022-09-05T12:06:48.064Z,3.53
2022-09-05T12:09:27.890Z,3.83
2022-09-05T12:12:39.417Z,4.85
2022-09-05T12:15:24.239Z,4.97
2022-09-05T12:18:04.711Z,6.32
2022-09-05T12:20:55.750Z,5.00
2022-09-05T12:23:55.232Z,6.95
2022-09-05T12:27:40.032Z,5.53
2022-09-05T12:29:33.431Z,2.90
2022-09-05T12:32:49.458Z,3.10
2022-09-05T12:36:11.730Z,4.32
2022-09-05T12:40:57.648Z,3.15
2022-09-05T12:41:43.804Z,7.15
2022-09-05T12:44:38.012Z,3.30
2022-09-05T12:46:50.216Z,4.93
2022-09-05T12:49:35.229Z,2.90
2022-09-05T12:52:09.669Z,8.63
2022-09-05T12:54:46.978Z,4.63
2022-09-05T13:01:25.773Z,6.00
2022-09-05T13:03:09.380Z,4.20
2022-09-05T13:03:28.428Z,3.37
2022-09-05T13:06:04.019Z,3.75
2022-09-05T13:08:44.082Z,3.45
2022-09-05T13:14:12.927Z,4.07
2022-09-05T13:14:54.322Z,3.13
2022-09-05T13:16:57.812Z,4.15
2022-09-05T13:19:37.252Z,5.30
2022-09-05T13:22:10.091Z,4.80
2022-09-05T13:24:41.661Z,3.33
2022-09-05T13:27:14.747Z,5.32
2022-09-05T13:33:40.151Z,3.45
2022-09-05T13:38:01.107Z,4.65
2022-09-05T13:38:11.856Z,3.95
2022-09-05T13:38:49.205Z,7.68
2022-09-05T13:41:28.430Z,5.07
2022-09-05T13:44:00.353Z,4.57
2022-09-05T13:46:58.167Z,5.05
2022-09-05T13:49:32.225Z,6.53
2022-09-05T13:52:16.473Z,5.18
2022-09-05T13:54:51.202Z,8.38
2022-09-05T13:57:32.476Z,4.30
2022-09-05T14:00:40.269Z,3.97
2022-09-05T14:03:41.192Z,5.18
2022-09-05T14:06:47.008Z,8.27
2022-09-05T14:09:46.488Z,4.88
2022-09-05T14:12:29.281Z,7.93
2022-09-05T14:15:10.006Z,9.20
2022-09-05T14:17:58.235Z,8.50
2022-09-05T14:20:49.783Z,5.25
2022-09-05T14:23:20.746Z,5.93
2022-09-05T14:25:52.826Z,5.75
2022-09-05T14:28:30.973Z,6.22
2022-09-05T14:32:22.277Z,4.85
2022-09-05T14:37:39.370Z,5.40
2022-09-05T14:37:54.946Z,6.90
2022-09-05T14:40:32.380Z,9.07
2022-09-05T14:43:37.531Z,8.00
2022-09-05T14:46:40.276Z,6.20
2022-09-05T14:49:37.126Z,4.88
2022-09-05T14:52:15.764Z,6.88
2022-09-05T15:02:38.978Z,7.43
2022-09-05T15:03:16.156Z,6.72
2022-09-05T15:05:50.360Z,5.30
2022-09-05T15:11:24.078Z,5.22
2022-09-05T15:12:21.029Z,4.93
2022-09-05T15:14:03.611Z,7.70
2022-09-05T15:16:36.568Z,7.88
2022-09-05T15:19:04.464Z,8.23
2022-09-05T15:21:36.541Z,10.85
2022-09-05T15:24:17.014Z,4.78
2022-09-05T15:26:53.924Z,6.07
2022-09-05T15:29:25.461Z,5.38
2022-09-05T15:32:11.860Z,5.93
2022-09-05T15:34:40.376Z,6.47
2022-09-05T15:37:28.827Z,5.03
2022-09-05T15:40:23.071Z,6.10
2022-09-05T15:42:55.508Z,8.88
2022-09-05T15:45:26.575Z,6.40
2022-09-05T15:48:16.564Z,6.30
2022-09-05T15:50:51.061Z,6.60
2022-09-05T15:53:24.776Z,8.18
2022-09-05T15:56:00.291Z,5.20
2022-09-05T15:58:53.189Z,4.63
2022-09-05T16:01:37.113Z,3.85
2022-09-05T16:10:29.674Z,7.00
2022-09-05T16:10:30.784Z,5.18
2022-09-05T16:10:34.004Z,4.82
2022-09-05T16:12:45.643Z,5.15
2022-09-05T16:15:51.408Z,5.05
2022-09-05T16:23:20.089Z,4.95
2022-09-05T16:23:26.368Z,5.45
2022-09-05T16:24:02.434Z,4.40
2022-09-05T16:26:39.003Z,4.38
2022-09-05T16:29:12.285Z,5.10
2022-09-05T16:31:48.858Z,4.93
2022-09-05T16:34:23.698Z,5.88
2022-09-05T16:37:08.201Z,4.90
2022-09-05T16:39:40.387Z,5.90
2022-09-05T16:42:16.043Z,6.85
2022-09-05T16:44:51.394Z,8.85
2022-09-05T16:47:25.567Z,3.92
2022-09-05T16:50:01.328Z,7.65
2022-09-05T16:52:38.259Z,6.20
2022-09-05T16:55:28.929Z,7.57
2022-09-05T16:58:02.160Z,5.85
2022-09-05T17:00:52.140Z,6.22
2022-09-05T17:03:28.773Z,5.68
2022-09-05T17:06:07.678Z,8.50
2022-09-05T17:08:37.377Z,6.45
2022-09-05T17:11:13.863Z,7.32
2022-09-05T17:13:57.611Z,5.97
2022-09-05T17:16:31.190Z,7.88
2022-09-05T17:19:01.984Z,6.22
2022-09-05T17:23:50.333Z,8.45
2022-09-05T17:29:17.483Z,8.98
2022-09-05T17:29:30.404Z,6.05
2022-09-05T17:32:56.139Z,6.88
2022-09-05T17:35:42.281Z,7.72
2022-09-05T17:38:38.170Z,5.82
2022-09-05T17:41:19.682Z,9.25
2022-09-05T17:43:52.213Z,10.30
2022-09-05T17:46:24.235Z,6.82
2022-09-05T17:52:19.186Z,6.25
2022-09-05T17:54:49.915Z,8.25
2022-09-05T17:57:50.329Z,6.03
2022-09-05T18:01:00.394Z,9.38
2022-09-05T18:04:15.784Z,7.90
2022-09-05T18:06:59.624Z,7.63
2022-09-05T18:10:11.862Z,8.57
2022-09-05T18:13:13.383Z,13.00
2022-09-05T18:16:11.928Z,6.45
2022-09-05T18:19:33.035Z,9.40
2022-09-05T18:21:48.408Z,10.45
2022-09-05T18:24:25.032Z,11.15
2022-09-05T18:27:43.754Z,8.57
2022-09-05T18:30:04.016Z,5.53
2022-09-05T18:32:48.920Z,10.75
2022-09-05T18:35:26.656Z,16.63
2022-09-05T18:38:18.288Z,19.65
2022-09-05T18:41:13.717Z,14.15
2022-09-05T18:44:12.264Z,16.10
2022-09-05T18:46:41.724Z,12.13
2022-09-05T18:50:23.307Z,16.70
2022-09-05T18:52:10.893Z,15.13
2022-09-05T18:54:43.799Z,17.33
2022-09-05T18:57:30.794Z,14.35
2022-09-05T19:00:10.218Z,10.38
2022-09-05T19:02:51.302Z,12.48
2022-09-05T19:05:45.912Z,11.45
2022-09-05T19:08:28.908Z,8.82
2022-09-05T19:11:00.142Z,9.10
2022-09-05T19:13:32.330Z,7.65
2022-09-05T19:16:21.063Z,7.95
2022-09-05T19:19:08.806Z,7.13
2022-09-05T19:21:41.094Z,8.63
2022-09-05T19:24:12.624Z,6.63
2022-09-05T19:26:41.099Z,10.57
2022-09-05T19:36:47.390Z,7.22
2022-09-05T19:36:49.927Z,6.97
2022-09-05T19:37:04.778Z,8.02
2022-09-05T19:37:51.093Z,6.15
2022-09-05T19:47:25.795Z,8.75
2022-09-05T19:47:38.546Z,8.60
2022-09-05T19:47:56.018Z,10.00
2022-09-05T19:49:06.488Z,7.18
2022-09-05T19:51:34.508Z,7.53
2022-09-05T19:54:05.841Z,8.93
2022-09-05T19:56:37.426Z,8.32
2022-09-05T19:59:16.892Z,9.83
2022-09-05T20:01:46.785Z,9.63
2022-09-05T20:04:18.608Z,10.57
2022-09-05T20:06:47.073Z,6.57
2022-09-05T20:09:19.118Z,9.88
2022-09-05T20:11:49.487Z,8.82
2022-09-05T20:14:19.827Z,8.82
2022-09-05T20:16:49.694Z,9.20
2022-09-05T20:19:28.436Z,10.07
2022-09-05T20:21:59.127Z,14.35
2022-09-05T20:24:40.286Z,10.65
2022-09-05T20:27:09.330Z,15.05
2022-09-05T20:29:55.140Z,18.92
2022-09-05T20:32:35.006Z,12.30
2022-09-05T20:37:50.306Z,11.75
2022-09-05T20:43:15.809Z,9.43
2022-09-05T20:43:17.840Z,10.18
2022-09-05T20:43:54.573Z,10.13
2022-09-05T20:50:32.064Z,9.60
2022-09-05T20:54:14.876Z,9.38
2022-09-05T20:54:28.316Z,9.05
2022-09-05T20:55:39.886Z,9.23
2022-09-05T20:58:12.491Z,11.23
2022-09-05T21:01:20.611Z,9.30
2022-09-05T21:03:36.822Z,5.07
2022-09-05T21:06:23.445Z,6.05
2022-09-05T21:08:53.368Z,4.57
2022-09-05T21:11:31.039Z,4.57
2022-09-05T21:14:03.388Z,7.05
2022-09-05T21:16:34.004Z,5.82
2022-09-05T21:19:02.098Z,6.28
2022-09-05T21:21:31.943Z,8.10
2022-09-05T21:24:16.592Z,6.65
2022-09-05T21:26:48.149Z,6.57
2022-09-05T21:29:27.590Z,7.60
2022-09-05T21:32:10.348Z,4.82
2022-09-05T21:34:44.906Z,4.93
2022-09-05T21:37:14.312Z,5.68
2022-09-05T21:39:59.484Z,5.35
2022-09-05T21:43:42.268Z,7.97
2022-09-05T21:47:41.434Z,4.70
2022-09-05T21:48:10.506Z,4.45
2022-09-05T21:50:42.830Z,5.93
2022-09-05T21:57:39.030Z,5.85
2022-09-05T21:59:18.746Z,5.97
2022-09-05T21:59:25.569Z,6.38
2022-09-05T22:01:51.619Z,5.43
2022-09-05T22:04:21.110Z,5.93
2022-09-05T22:06:49.149Z,6.47
2022-09-05T22:09:17.914Z,4.45
2022-09-05T22:11:50.281Z,6.47
2022-09-05T22:14:19.039Z,4.07
2022-09-05T22:16:50.259Z,5.25
2022-09-05T22:19:37.300Z,3.10
2022-09-05T22:22:15.701Z,6.20
2022-09-05T22:24:47.883Z,4.13
2022-09-05T22:27:20.004Z,4.25
2022-09-05T22:29:50.457Z,3.33
2022-09-05T22:32:33.741Z,3.58
2022-09-05T22:35:27.331Z,4.22
2022-09-05T22:37:59.313Z,5.63
2022-09-05T22:40:27.316Z,4.70
2022-09-05T22:42:57.133Z,4.68
2022-09-05T22:45:25.219Z,4.22
2022-09-05T22:47:54.498Z,3.15
2022-09-05T22:50:23.131Z,3.75
2022-09-05T22:52:51.439Z,6.13
2022-09-05T22:55:19.298Z,5.53
2022-09-05T22:57:47.131Z,4.88
2022-09-05T23:00:15.799Z,2.97
2022-09-05T23:02:43.658Z,4.97
2022-09-05T23:05:13.006Z,3.13
2022-09-05T23:07:40.846Z,4.93
2022-09-05T23:10:08.979Z,3.08
2022-09-05T23:12:37.273Z,2.80
2022-09-05T23:15:05.623Z,3.38
2022-09-05T23:17:33.502Z,3.20
2022-09-05T23:20:01.377Z,3.33
2022-09-05T23:22:30.543Z,5.13
2022-09-05T23:24:58.362Z,4.75
2022-09-05T23:27:26.463Z,4.00
2022-09-05T23:29:54.296Z,2.85
2022-09-05T23:32:22.138Z,3.80
2022-09-05T23:34:50.335Z,2.88
2022-09-05T23:37:18.153Z,3.65
2022-09-05T23:39:47.405Z,2.50
2022-09-05T23:42:15.294Z,3.72
2022-09-05T23:44:43.407Z,4.50
2022-09-05T23:47:11.264Z,3.00
2022-09-05T23:49:39.136Z,2.78
2022-09-05T23:52:07.066Z,2.83
2022-09-05T23:54:34.890Z,6.07
2022-09-05T23:57:04.066Z,4.35
2022-09-05T23:59:31.977Z,3.70
